sensor_id;sensor_type;location;lat;lon;timestamp;temperature;humidity
5560;DHT22;2803;47.916;8.074;2022-11-20T00:01:04;9.40;99.90
5560;DHT22;2803;47.916;8.074;2022-11-20T00:03:30;9.40;99.90
5560;DHT22;2803;47.916;8.074;2022-11-20T00:05:59;9.50;99.90
5560;DHT22;2803;47.916;8.074;2022-11-20T00:08:26;9.40;99.90
5560;DHT22;2803;47.916;8.074;2022-11-20T00:10:54;9.50;99.90
5560;DHT22;2803;47.916;8.074;2022-11-20T00:13:20;9.40;99.90
5560;DHT22;2803;47.916;8.074;2022-11-20T00:15:47;9.30;99.90
5560;DHT22;2803;47.916;8.074;2022-11-20T00:18:14;9.30;99.90
5560;DHT22;2803;47.916;8.074;2022-11-20T00:20:40;9.30;99.90
5560;DHT22;2803;47.916;8.074;2022-11-20T00:23:07;9.10;99.90
5560;DHT22;2803;47.916;8.074;2022-11-20T00:25:34;9.20;99.90
5560;DHT22;2803;47.916;8.074;2022-11-20T00:28:02;9.10;99.90
5560;DHT22;2803;47.916;8.074;2022-11-20T00:30:29;9.30;99.90
5560;DHT22;2803;47.916;8.074;2022-11-20T00:32:56;9.30;99.90
5560;DHT22;2803;47.916;8.074;2022-11-20T00:35:23;9.40;99.90
5560;DHT22;2803;47.916;8.074;2022-11-20T00:37:50;9.50;99.90
5560;DHT22;2803;47.916;8.074;2022-11-20T00:40:16;9.40;99.90
5560;DHT22;2803;47.916;8.074;2022-11-20T00:42:43;9.40;99.90
5560;DHT22;2803;47.916;8.074;2022-11-20T00:45:11;9.30;99.90
5560;DHT22;2803;47.916;8.074;2022-11-20T00:47:37;9.40;99.90
5560;DHT22;2803;47.916;8.074;2022-11-20T00:50:05;9.40;99.90
5560;DHT22;2803;47.916;8.074;2022-11-20T00:52:31;9.40;99.90
5560;DHT22;2803;47.916;8.074;2022-11-20T00:54:58;9.30;99.90
5560;DHT22;2803;47.916;8.074;2022-11-20T00:57:24;9.10;99.90
5560;DHT22;2803;47.916;8.074;2022-11-20T00:59:51;8.90;99.90
5560;DHT22;2803;47.916;8.074;2022-11-20T01:02:19;8.90;99.90
5560;DHT22;2803;47.916;8.074;2022-11-20T01:04:45;9.10;99.90
5560;DHT22;2803;47.916;8.074;2022-11-20T01:07:12;9.10;99.90
5560;DHT22;2803;47.916;8.074;2022-11-20T01:09:39;9.10;99.90
5560;DHT22;2803;47.916;8.074;2022-11-20T01:12:05;9.10;99.90
5560;DHT22;2803;47.916;8.074;2022-11-20T01:14:32;9.20;99.90
5560;DHT22;2803;47.916;8.074;2022-11-20T01:16:58;9.20;99.90
5560;DHT22;2803;47.916;8.074;2022-11-20T01:19:26;9.10;99.90
5560;DHT22;2803;47.916;8.074;2022-11-20T01:21:54;9.00;99.90
5560;DHT22;2803;47.916;8.074;2022-11-20T01:24:21;9.10;99.90
5560;DHT22;2803;47.916;8.074;2022-11-20T01:26:49;9.00;99.90
5560;DHT22;2803;47.916;8.074;2022-11-20T01:29:18;9.10;99.90
5560;DHT22;2803;47.916;8.074;2022-11-20T01:31:45;9.20;99.90
5560;DHT22;2803;47.916;8.074;2022-11-20T01:34:13;8.60;99.90
5560;DHT22;2803;47.916;8.074;2022-11-20T01:36:42;8.60;99.90
5560;DHT22;2803;47.916;8.074;2022-11-20T01:39:12;8.80;99.90
5560;DHT22;2803;47.916;8.074;2022-11-20T01:41:39;9.00;99.90
5560;DHT22;2803;47.916;8.074;2022-11-20T01:44:21;9.00;99.90
5560;DHT22;2803;47.916;8.074;2022-11-20T01:46:54;8.80;99.90
5560;DHT22;2803;47.916;8.074;2022-11-20T01:49:36;8.90;99.90
5560;DHT22;2803;47.916;8.074;2022-11-20T01:52:09;8.90;99.90
5560;DHT22;2803;47.916;8.074;2022-11-20T01:54:40;8.30;99.90
5560;DHT22;2803;47.916;8.074;2022-11-20T01:57:10;7.90;99.90
5560;DHT22;2803;47.916;8.074;2022-11-20T01:59:41;8.10;99.90
5560;DHT22;2803;47.916;8.074;2022-11-20T02:02:10;8.40;99.90
5560;DHT22;2803;47.916;8.074;2022-11-20T02:04:37;8.70;99.90
5560;DHT22;2803;47.916;8.074;2022-11-20T02:07:05;8.70;99.90
5560;DHT22;2803;47.916;8.074;2022-11-20T02:09:32;8.80;99.90
5560;DHT22;2803;47.916;8.074;2022-11-20T02:11:59;8.80;99.90
5560;DHT22;2803;47.916;8.074;2022-11-20T02:14:26;8.70;99.90
5560;DHT22;2803;47.916;8.074;2022-11-20T02:16:54;8.90;99.90
5560;DHT22;2803;47.916;8.074;2022-11-20T02:19:24;8.80;99.90
5560;DHT22;2803;47.916;8.074;2022-11-20T02:21:58;8.80;99.90
5560;DHT22;2803;47.916;8.074;2022-11-20T02:24:29;8.90;99.90
5560;DHT22;2803;47.916;8.074;2022-11-20T02:26:59;8.70;99.90
5560;DHT22;2803;47.916;8.074;2022-11-20T02:29:30;8.80;99.90
5560;DHT22;2803;47.916;8.074;2022-11-20T02:31:59;8.80;99.90
5560;DHT22;2803;47.916;8.074;2022-11-20T02:34:26;8.70;99.90
5560;DHT22;2803;47.916;8.074;2022-11-20T02:36:54;8.80;99.90
5560;DHT22;2803;47.916;8.074;2022-11-20T02:39:23;8.60;99.90
5560;DHT22;2803;47.916;8.074;2022-11-20T02:41:53;8.60;99.90
5560;DHT22;2803;47.916;8.074;2022-11-20T02:44:20;8.40;99.90
5560;DHT22;2803;47.916;8.074;2022-11-20T02:46:47;8.20;99.90
5560;DHT22;2803;47.916;8.074;2022-11-20T02:49:13;8.10;99.90
5560;DHT22;2803;47.916;8.074;2022-11-20T02:51:41;8.10;99.90
5560;DHT22;2803;47.916;8.074;2022-11-20T02:54:08;8.30;99.90
5560;DHT22;2803;47.916;8.074;2022-11-20T02:56:37;8.30;99.90
5560;DHT22;2803;47.916;8.074;2022-11-20T02:59:05;7.90;99.90
5560;DHT22;2803;47.916;8.074;2022-11-20T03:01:32;8.10;99.90
5560;DHT22;2803;47.916;8.074;2022-11-20T03:03:59;8.30;99.90
5560;DHT22;2803;47.916;8.074;2022-11-20T03:06:25;8.00;99.90
5560;DHT22;2803;47.916;8.074;2022-11-20T03:08:52;8.20;99.90
5560;DHT22;2803;47.916;8.074;2022-11-20T03:11:19;8.10;99.90
5560;DHT22;2803;47.916;8.074;2022-11-20T03:13:46;8.20;99.90
5560;DHT22;2803;47.916;8.074;2022-11-20T03:16:16;8.10;99.90
5560;DHT22;2803;47.916;8.074;2022-11-20T03:18:43;7.90;99.90
5560;DHT22;2803;47.916;8.074;2022-11-20T03:21:11;7.80;99.90
5560;DHT22;2803;47.916;8.074;2022-11-20T03:23:38;7.90;99.90
5560;DHT22;2803;47.916;8.074;2022-11-20T03:26:08;8.20;99.90
5560;DHT22;2803;47.916;8.074;2022-11-20T03:28:35;8.20;99.90
5560;DHT22;2803;47.916;8.074;2022-11-20T03:31:06;8.00;99.90
5560;DHT22;2803;47.916;8.074;2022-11-20T03:33:34;8.00;99.90
5560;DHT22;2803;47.916;8.074;2022-11-20T03:36:02;8.00;99.90
5560;DHT22;2803;47.916;8.074;2022-11-20T03:38:29;7.90;99.90
5560;DHT22;2803;47.916;8.074;2022-11-20T03:40:59;7.80;99.90
5560;DHT22;2803;47.916;8.074;2022-11-20T03:43:26;7.70;99.90
5560;DHT22;2803;47.916;8.074;2022-11-20T03:45:52;7.50;99.90
5560;DHT22;2803;47.916;8.074;2022-11-20T03:48:19;7.30;99.90
5560;DHT22;2803;47.916;8.074;2022-11-20T03:50:47;6.60;99.90
5560;DHT22;2803;47.916;8.074;2022-11-20T03:53:14;6.50;99.90
5560;DHT22;2803;47.916;8.074;2022-11-20T03:55:40;6.50;99.90
5560;DHT22;2803;47.916;8.074;2022-11-20T03:58:07;6.60;99.90
5560;DHT22;2803;47.916;8.074;2022-11-20T04:00:34;6.90;99.90
5560;DHT22;2803;47.916;8.074;2022-11-20T04:03:02;7.00;99.90
5560;DHT22;2803;47.916;8.074;2022-11-20T04:05:28;7.40;99.90
5560;DHT22;2803;47.916;8.074;2022-11-20T04:07:57;7.30;99.90
5560;DHT22;2803;47.916;8.074;2022-11-20T04:10:24;7.00;99.90
5560;DHT22;2803;47.916;8.074;2022-11-20T04:12:50;6.80;99.90
5560;DHT22;2803;47.916;8.074;2022-11-20T04:15:17;7.00;99.90
5560;DHT22;2803;47.916;8.074;2022-11-20T04:17:43;6.90;99.90
5560;DHT22;2803;47.916;8.074;2022-11-20T04:20:10;6.80;99.90
5560;DHT22;2803;47.916;8.074;2022-11-20T04:22:37;7.20;99.90
5560;DHT22;2803;47.916;8.074;2022-11-20T04:25:05;7.10;99.90
5560;DHT22;2803;47.916;8.074;2022-11-20T04:27:32;7.30;99.90
5560;DHT22;2803;47.916;8.074;2022-11-20T04:29:59;7.10;99.90
5560;DHT22;2803;47.916;8.074;2022-11-20T04:32:25;7.50;99.90
5560;DHT22;2803;47.916;8.074;2022-11-20T04:34:52;7.40;99.90
5560;DHT22;2803;47.916;8.074;2022-11-20T04:37:18;7.40;99.90
5560;DHT22;2803;47.916;8.074;2022-11-20T04:39:45;7.50;99.90
5560;DHT22;2803;47.916;8.074;2022-11-20T04:42:13;7.50;99.90
5560;DHT22;2803;47.916;8.074;2022-11-20T04:44:53;7.70;99.90
5560;DHT22;2803;47.916;8.074;2022-11-20T04:47:20;7.90;99.90
5560;DHT22;2803;47.916;8.074;2022-11-20T04:49:47;8.00;99.90
5560;DHT22;2803;47.916;8.074;2022-11-20T04:52:14;8.00;99.90
5560;DHT22;2803;47.916;8.074;2022-11-20T04:54:41;7.90;99.90
5560;DHT22;2803;47.916;8.074;2022-11-20T04:57:07;7.50;99.90
5560;DHT22;2803;47.916;8.074;2022-11-20T04:59:36;7.60;99.90
5560;DHT22;2803;47.916;8.074;2022-11-20T05:02:02;7.80;99.90
5560;DHT22;2803;47.916;8.074;2022-11-20T05:04:29;8.00;99.90
5560;DHT22;2803;47.916;8.074;2022-11-20T05:06:56;8.10;99.90
5560;DHT22;2803;47.916;8.074;2022-11-20T05:09:22;7.80;99.90
5560;DHT22;2803;47.916;8.074;2022-11-20T05:11:49;8.00;99.90
5560;DHT22;2803;47.916;8.074;2022-11-20T05:14:16;8.00;99.90
5560;DHT22;2803;47.916;8.074;2022-11-20T05:16:44;7.30;99.90
5560;DHT22;2803;47.916;8.074;2022-11-20T05:19:10;7.30;99.90
5560;DHT22;2803;47.916;8.074;2022-11-20T05:21:37;7.60;99.90
5560;DHT22;2803;47.916;8.074;2022-11-20T05:24:05;7.60;99.90
5560;DHT22;2803;47.916;8.074;2022-11-20T05:26:32;7.60;99.90
5560;DHT22;2803;47.916;8.074;2022-11-20T05:28:59;7.90;99.90
5560;DHT22;2803;47.916;8.074;2022-11-20T05:31:27;8.00;99.90
5560;DHT22;2803;47.916;8.074;2022-11-20T05:33:56;7.80;99.90
5560;DHT22;2803;47.916;8.074;2022-11-20T05:36:23;7.90;99.90
5560;DHT22;2803;47.916;8.074;2022-11-20T05:38:50;8.10;99.90
5560;DHT22;2803;47.916;8.074;2022-11-20T05:41:18;8.20;99.90
5560;DHT22;2803;47.916;8.074;2022-11-20T05:43:46;8.30;99.90
5560;DHT22;2803;47.916;8.074;2022-11-20T05:46:15;8.30;99.90
5560;DHT22;2803;47.916;8.074;2022-11-20T05:48:43;8.00;99.90
5560;DHT22;2803;47.916;8.074;2022-11-20T05:51:13;8.10;99.90
5560;DHT22;2803;47.916;8.074;2022-11-20T05:53:40;8.10;99.90
5560;DHT22;2803;47.916;8.074;2022-11-20T05:56:09;8.10;99.90
5560;DHT22;2803;47.916;8.074;2022-11-20T05:58:36;8.30;99.90
5560;DHT22;2803;47.916;8.074;2022-11-20T06:01:06;8.10;99.90
5560;DHT22;2803;47.916;8.074;2022-11-20T06:03:33;7.80;99.90
5560;DHT22;2803;47.916;8.074;2022-11-20T06:06:00;8.10;99.90
5560;DHT22;2803;47.916;8.074;2022-11-20T06:08:28;8.20;99.90
5560;DHT22;2803;47.916;8.074;2022-11-20T06:10:55;8.20;99.90
5560;DHT22;2803;47.916;8.074;2022-11-20T06:13:21;8.10;99.90
5560;DHT22;2803;47.916;8.074;2022-11-20T06:15:49;8.20;99.90
5560;DHT22;2803;47.916;8.074;2022-11-20T06:18:16;8.30;99.90
5560;DHT22;2803;47.916;8.074;2022-11-20T06:20:42;8.40;99.90
5560;DHT22;2803;47.916;8.074;2022-11-20T06:23:09;8.50;99.90
5560;DHT22;2803;47.916;8.074;2022-11-20T06:25:38;8.60;99.90
5560;DHT22;2803;47.916;8.074;2022-11-20T06:28:05;8.70;99.90
5560;DHT22;2803;47.916;8.074;2022-11-20T06:30:32;8.80;99.90
5560;DHT22;2803;47.916;8.074;2022-11-20T06:32:59;8.60;99.90
5560;DHT22;2803;47.916;8.074;2022-11-20T06:35:25;8.70;99.90
5560;DHT22;2803;47.916;8.074;2022-11-20T06:37:52;8.50;99.90
5560;DHT22;2803;47.916;8.074;2022-11-20T06:40:19;8.70;99.90
5560;DHT22;2803;47.916;8.074;2022-11-20T06:42:47;8.60;99.90
5560;DHT22;2803;47.916;8.074;2022-11-20T06:45:13;8.60;99.90
5560;DHT22;2803;47.916;8.074;2022-11-20T06:47:40;8.70;99.90
5560;DHT22;2803;47.916;8.074;2022-11-20T06:50:07;8.60;99.90
5560;DHT22;2803;47.916;8.074;2022-11-20T06:52:33;8.60;99.90
5560;DHT22;2803;47.916;8.074;2022-11-20T06:55:00;8.70;99.90
5560;DHT22;2803;47.916;8.074;2022-11-20T06:57:26;8.50;99.90
5560;DHT22;2803;47.916;8.074;2022-11-20T06:59:54;8.70;99.90
5560;DHT22;2803;47.916;8.074;2022-11-20T07:02:21;8.60;99.90
5560;DHT22;2803;47.916;8.074;2022-11-20T07:04:48;8.70;99.90
5560;DHT22;2803;47.916;8.074;2022-11-20T07:07:14;8.90;99.90
5560;DHT22;2803;47.916;8.074;2022-11-20T07:09:41;8.80;99.90
5560;DHT22;2803;47.916;8.074;2022-11-20T07:12:08;8.60;99.90
5560;DHT22;2803;47.916;8.074;2022-11-20T07:14:35;8.80;99.90
5560;DHT22;2803;47.916;8.074;2022-11-20T07:17:03;8.80;99.90
5560;DHT22;2803;47.916;8.074;2022-11-20T07:19:29;8.90;99.90
5560;DHT22;2803;47.916;8.074;2022-11-20T07:21:56;8.50;99.90
5560;DHT22;2803;47.916;8.074;2022-11-20T07:24:22;8.70;99.90
5560;DHT22;2803;47.916;8.074;2022-11-20T07:26:49;8.90;99.90
5560;DHT22;2803;47.916;8.074;2022-11-20T07:29:16;9.00;99.90
5560;DHT22;2803;47.916;8.074;2022-11-20T07:31:43;9.00;99.90
5560;DHT22;2803;47.916;8.074;2022-11-20T07:34:11;9.20;99.90
5560;DHT22;2803;47.916;8.074;2022-11-20T07:36:38;9.20;99.90
5560;DHT22;2803;47.916;8.074;2022-11-20T07:39:05;9.30;99.90
5560;DHT22;2803;47.916;8.074;2022-11-20T07:41:32;9.30;99.90
5560;DHT22;2803;47.916;8.074;2022-11-20T07:43:59;9.40;99.90
5560;DHT22;2803;47.916;8.074;2022-11-20T07:46:25;9.30;99.90
5560;DHT22;2803;47.916;8.074;2022-11-20T07:48:52;9.30;99.90
5560;DHT22;2803;47.916;8.074;2022-11-20T07:51:20;9.40;99.90
5560;DHT22;2803;47.916;8.074;2022-11-20T07:53:46;9.30;99.90
5560;DHT22;2803;47.916;8.074;2022-11-20T07:56:13;9.20;99.90
5560;DHT22;2803;47.916;8.074;2022-11-20T07:58:40;9.10;99.90
5560;DHT22;2803;47.916;8.074;2022-11-20T08:01:07;9.30;99.90
5560;DHT22;2803;47.916;8.074;2022-11-20T08:03:35;9.40;99.90
5560;DHT22;2803;47.916;8.074;2022-11-20T08:06:03;9.40;99.90
5560;DHT22;2803;47.916;8.074;2022-11-20T08:08:32;9.10;99.90
5560;DHT22;2803;47.916;8.074;2022-11-20T08:10:59;9.10;99.90
5560;DHT22;2803;47.916;8.074;2022-11-20T08:13:46;9.20;99.90
5560;DHT22;2803;47.916;8.074;2022-11-20T08:16:26;9.20;99.90
5560;DHT22;2803;47.916;8.074;2022-11-20T08:18:53;9.40;99.90
5560;DHT22;2803;47.916;8.074;2022-11-20T08:21:20;9.40;99.90
5560;DHT22;2803;47.916;8.074;2022-11-20T08:23:48;9.60;99.90
5560;DHT22;2803;47.916;8.074;2022-11-20T08:26:14;9.60;99.90
5560;DHT22;2803;47.916;8.074;2022-11-20T08:28:41;9.70;99.90
5560;DHT22;2803;47.916;8.074;2022-11-20T08:31:08;9.70;99.90
5560;DHT22;2803;47.916;8.074;2022-11-20T08:33:35;9.70;99.90
5560;DHT22;2803;47.916;8.074;2022-11-20T08:36:02;9.70;99.90
5560;DHT22;2803;47.916;8.074;2022-11-20T08:38:30;9.80;99.90
5560;DHT22;2803;47.916;8.074;2022-11-20T08:40:58;9.90;99.90
5560;DHT22;2803;47.916;8.074;2022-11-20T08:43:39;10.10;99.90
5560;DHT22;2803;47.916;8.074;2022-11-20T08:46:06;10.00;99.90
5560;DHT22;2803;47.916;8.074;2022-11-20T08:48:32;9.90;99.90
5560;DHT22;2803;47.916;8.074;2022-11-20T08:50:59;9.80;99.90
5560;DHT22;2803;47.916;8.074;2022-11-20T08:53:26;9.80;99.90
5560;DHT22;2803;47.916;8.074;2022-11-20T08:55:53;9.80;99.90
5560;DHT22;2803;47.916;8.074;2022-11-20T08:58:21;9.60;99.90
5560;DHT22;2803;47.916;8.074;2022-11-20T09:00:47;9.60;99.90
5560;DHT22;2803;47.916;8.074;2022-11-20T09:03:14;9.80;99.90
5560;DHT22;2803;47.916;8.074;2022-11-20T09:05:40;9.80;99.90
5560;DHT22;2803;47.916;8.074;2022-11-20T09:08:08;9.80;99.90
5560;DHT22;2803;47.916;8.074;2022-11-20T09:10:35;9.80;99.90
5560;DHT22;2803;47.916;8.074;2022-11-20T09:13:02;9.80;99.90
5560;DHT22;2803;47.916;8.074;2022-11-20T09:15:30;9.80;99.90
5560;DHT22;2803;47.916;8.074;2022-11-20T09:17:57;9.80;99.90
5560;DHT22;2803;47.916;8.074;2022-11-20T09:20:25;9.80;99.90
5560;DHT22;2803;47.916;8.074;2022-11-20T09:22:52;9.90;99.90
5560;DHT22;2803;47.916;8.074;2022-11-20T09:25:18;10.00;99.90
5560;DHT22;2803;47.916;8.074;2022-11-20T09:27:45;9.80;99.90
5560;DHT22;2803;47.916;8.074;2022-11-20T09:30:13;9.90;99.90
5560;DHT22;2803;47.916;8.074;2022-11-20T09:32:42;9.90;99.90
5560;DHT22;2803;47.916;8.074;2022-11-20T09:35:09;9.90;99.90
5560;DHT22;2803;47.916;8.074;2022-11-20T09:37:35;9.60;99.90
5560;DHT22;2803;47.916;8.074;2022-11-20T09:40:02;9.50;99.90
5560;DHT22;2803;47.916;8.074;2022-11-20T09:42:36;8.90;99.90
5560;DHT22;2803;47.916;8.074;2022-11-20T09:45:15;8.80;99.90
5560;DHT22;2803;47.916;8.074;2022-11-20T09:47:58;8.60;99.90
5560;DHT22;2803;47.916;8.074;2022-11-20T09:50:31;8.50;99.90
5560;DHT22;2803;47.916;8.074;2022-11-20T09:53:09;8.10;99.90
5560;DHT22;2803;47.916;8.074;2022-11-20T09:55:37;8.10;99.90
5560;DHT22;2803;47.916;8.074;2022-11-20T09:58:06;7.80;99.90
5560;DHT22;2803;47.916;8.074;2022-11-20T10:00:34;8.00;99.90
5560;DHT22;2803;47.916;8.074;2022-11-20T10:03:10;8.00;99.90
5560;DHT22;2803;47.916;8.074;2022-11-20T10:05:42;8.40;99.90
5560;DHT22;2803;47.916;8.074;2022-11-20T10:08:16;8.60;99.90
5560;DHT22;2803;47.916;8.074;2022-11-20T10:10:46;8.60;99.90
5560;DHT22;2803;47.916;8.074;2022-11-20T10:13:20;8.20;99.90
5560;DHT22;2803;47.916;8.074;2022-11-20T10:16:01;7.80;99.90
5560;DHT22;2803;47.916;8.074;2022-11-20T10:18:40;8.20;99.90
5560;DHT22;2803;47.916;8.074;2022-11-20T10:21:16;8.10;99.90
5560;DHT22;2803;47.916;8.074;2022-11-20T10:24:08;8.30;99.90
5560;DHT22;2803;47.916;8.074;2022-11-20T10:26:44;8.70;99.90
5560;DHT22;2803;47.916;8.074;2022-11-20T10:29:16;9.10;99.90
5560;DHT22;2803;47.916;8.074;2022-11-20T10:31:45;9.30;99.90
5560;DHT22;2803;47.916;8.074;2022-11-20T10:34:19;9.50;99.90
5560;DHT22;2803;47.916;8.074;2022-11-20T10:36:52;9.40;99.90
5560;DHT22;2803;47.916;8.074;2022-11-20T10:39:28;9.60;99.90
5560;DHT22;2803;47.916;8.074;2022-11-20T10:41:56;9.70;99.90
5560;DHT22;2803;47.916;8.074;2022-11-20T10:44:27;9.70;99.90
5560;DHT22;2803;47.916;8.074;2022-11-20T10:47:13;9.60;99.90
5560;DHT22;2803;47.916;8.074;2022-11-20T10:49:42;9.70;99.90
5560;DHT22;2803;47.916;8.074;2022-11-20T10:52:15;9.70;99.90
5560;DHT22;2803;47.916;8.074;2022-11-20T10:54:47;9.80;99.90
5560;DHT22;2803;47.916;8.074;2022-11-20T10:57:24;9.90;99.90
5560;DHT22;2803;47.916;8.074;2022-11-20T11:00:00;9.90;99.90
5560;DHT22;2803;47.916;8.074;2022-11-20T11:02:34;10.00;99.90
5560;DHT22;2803;47.916;8.074;2022-11-20T11:05:11;9.60;99.90
5560;DHT22;2803;47.916;8.074;2022-11-20T11:07:40;9.40;99.90
5560;DHT22;2803;47.916;8.074;2022-11-20T11:10:15;9.20;99.90
5560;DHT22;2803;47.916;8.074;2022-11-20T11:12:44;9.20;99.90
5560;DHT22;2803;47.916;8.074;2022-11-20T11:15:15;8.60;99.90
5560;DHT22;2803;47.916;8.074;2022-11-20T11:17:50;8.40;99.90
5560;DHT22;2803;47.916;8.074;2022-11-20T11:20:20;8.00;99.90
5560;DHT22;2803;47.916;8.074;2022-11-20T11:22:48;8.20;99.90
5560;DHT22;2803;47.916;8.074;2022-11-20T11:25:31;8.50;99.90
5560;DHT22;2803;47.916;8.074;2022-11-20T11:28:00;8.40;99.90
5560;DHT22;2803;47.916;8.074;2022-11-20T11:30:28;8.40;99.90
5560;DHT22;2803;47.916;8.074;2022-11-20T11:33:05;8.70;99.90
5560;DHT22;2803;47.916;8.074;2022-11-20T11:35:38;8.80;99.90
5560;DHT22;2803;47.916;8.074;2022-11-20T11:38:13;8.90;99.90
5560;DHT22;2803;47.916;8.074;2022-11-20T11:40:42;9.20;99.90
5560;DHT22;2803;47.916;8.074;2022-11-20T11:43:19;9.50;99.90
5560;DHT22;2803;47.916;8.074;2022-11-20T11:46:00;9.70;99.90
5560;DHT22;2803;47.916;8.074;2022-11-20T11:48:27;9.70;99.90
5560;DHT22;2803;47.916;8.074;2022-11-20T11:50:55;9.30;99.90
5560;DHT22;2803;47.916;8.074;2022-11-20T11:53:23;8.90;99.90
5560;DHT22;2803;47.916;8.074;2022-11-20T11:55:56;8.80;99.90
5560;DHT22;2803;47.916;8.074;2022-11-20T11:58:34;9.00;99.90
5560;DHT22;2803;47.916;8.074;2022-11-20T12:01:17;9.10;99.90
5560;DHT22;2803;47.916;8.074;2022-11-20T12:03:55;9.40;99.90
5560;DHT22;2803;47.916;8.074;2022-11-20T12:06:26;9.40;99.90
5560;DHT22;2803;47.916;8.074;2022-11-20T12:08:58;9.80;99.90
5560;DHT22;2803;47.916;8.074;2022-11-20T12:11:32;9.60;99.90
5560;DHT22;2803;47.916;8.074;2022-11-20T12:14:04;9.40;99.90
5560;DHT22;2803;47.916;8.074;2022-11-20T12:16:37;9.20;99.90
5560;DHT22;2803;47.916;8.074;2022-11-20T12:19:08;9.30;99.90
5560;DHT22;2803;47.916;8.074;2022-11-20T12:21:43;9.40;99.90
5560;DHT22;2803;47.916;8.074;2022-11-20T12:24:30;9.30;99.90
5560;DHT22;2803;47.916;8.074;2022-11-20T12:27:11;9.90;99.90
5560;DHT22;2803;47.916;8.074;2022-11-20T12:29:48;10.20;99.90
5560;DHT22;2803;47.916;8.074;2022-11-20T12:35:24;10.50;99.90
5560;DHT22;2803;47.916;8.074;2022-11-20T12:38:08;10.40;99.90
5560;DHT22;2803;47.916;8.074;2022-11-20T12:40:45;10.10;99.90
5560;DHT22;2803;47.916;8.074;2022-11-20T12:43:19;10.10;99.90
5560;DHT22;2803;47.916;8.074;2022-11-20T12:46:17;10.20;99.90
5560;DHT22;2803;47.916;8.074;2022-11-20T12:48:56;10.30;99.90
5560;DHT22;2803;47.916;8.074;2022-11-20T12:51:43;10.20;99.90
5560;DHT22;2803;47.916;8.074;2022-11-20T12:54:30;10.40;99.90
5560;DHT22;2803;47.916;8.074;2022-11-20T12:57:05;10.20;99.90
5560;DHT22;2803;47.916;8.074;2022-11-20T12:59:51;10.30;99.90
5560;DHT22;2803;47.916;8.074;2022-11-20T13:02:25;10.30;99.90
5560;DHT22;2803;47.916;8.074;2022-11-20T13:05:06;10.20;99.90
5560;DHT22;2803;47.916;8.074;2022-11-20T13:07:38;10.30;99.90
5560;DHT22;2803;47.916;8.074;2022-11-20T13:10:16;10.20;99.90
5560;DHT22;2803;47.916;8.074;2022-11-20T13:12:46;9.90;99.90
5560;DHT22;2803;47.916;8.074;2022-11-20T13:15:24;9.80;99.90
5560;DHT22;2803;47.916;8.074;2022-11-20T13:17:56;9.30;99.90
5560;DHT22;2803;47.916;8.074;2022-11-20T13:20:24;9.30;99.90
5560;DHT22;2803;47.916;8.074;2022-11-20T13:22:52;9.70;99.90
5560;DHT22;2803;47.916;8.074;2022-11-20T13:25:25;9.90;99.90
5560;DHT22;2803;47.916;8.074;2022-11-20T13:27:53;10.00;99.90
5560;DHT22;2803;47.916;8.074;2022-11-20T13:30:21;9.90;99.90
5560;DHT22;2803;47.916;8.074;2022-11-20T13:32:50;9.90;99.90
5560;DHT22;2803;47.916;8.074;2022-11-20T13:35:27;9.70;99.90
5560;DHT22;2803;47.916;8.074;2022-11-20T13:38:05;9.90;99.90
5560;DHT22;2803;47.916;8.074;2022-11-20T13:40:36;9.60;99.90
5560;DHT22;2803;47.916;8.074;2022-11-20T13:43:11;9.70;99.90
5560;DHT22;2803;47.916;8.074;2022-11-20T13:45:41;9.50;99.90
5560;DHT22;2803;47.916;8.074;2022-11-20T13:48:20;9.40;99.90
5560;DHT22;2803;47.916;8.074;2022-11-20T13:50:55;9.50;99.90
5560;DHT22;2803;47.916;8.074;2022-11-20T13:53:40;9.20;99.90
5560;DHT22;2803;47.916;8.074;2022-11-20T13:56:17;9.00;99.90
5560;DHT22;2803;47.916;8.074;2022-11-20T13:58:56;9.30;99.90
5560;DHT22;2803;47.916;8.074;2022-11-20T14:01:28;9.30;99.90
5560;DHT22;2803;47.916;8.074;2022-11-20T14:03:55;9.50;99.90
5560;DHT22;2803;47.916;8.074;2022-11-20T14:06:26;9.60;99.90
5560;DHT22;2803;47.916;8.074;2022-11-20T14:08:54;9.80;99.90
5560;DHT22;2803;47.916;8.074;2022-11-20T14:11:24;9.80;99.90
5560;DHT22;2803;47.916;8.074;2022-11-20T14:13:54;10.00;99.90
5560;DHT22;2803;47.916;8.074;2022-11-20T14:16:21;9.70;99.90
5560;DHT22;2803;47.916;8.074;2022-11-20T14:18:48;9.60;99.90
5560;DHT22;2803;47.916;8.074;2022-11-20T14:21:22;9.70;99.90
5560;DHT22;2803;47.916;8.074;2022-11-20T14:23:48;10.00;99.90
5560;DHT22;2803;47.916;8.074;2022-11-20T14:26:17;10.20;99.90
5560;DHT22;2803;47.916;8.074;2022-11-20T14:28:48;10.20;99.90
5560;DHT22;2803;47.916;8.074;2022-11-20T14:31:21;10.10;99.90
5560;DHT22;2803;47.916;8.074;2022-11-20T14:33:49;10.40;99.90
5560;DHT22;2803;47.916;8.074;2022-11-20T14:36:17;10.10;99.90
5560;DHT22;2803;47.916;8.074;2022-11-20T14:38:45;9.90;99.90
5560;DHT22;2803;47.916;8.074;2022-11-20T14:41:17;9.70;99.90
5560;DHT22;2803;47.916;8.074;2022-11-20T14:43:47;9.80;99.90
5560;DHT22;2803;47.916;8.074;2022-11-20T14:46:16;10.00;99.90
5560;DHT22;2803;47.916;8.074;2022-11-20T14:48:45;9.50;99.90
5560;DHT22;2803;47.916;8.074;2022-11-20T14:51:25;9.70;99.90
5560;DHT22;2803;47.916;8.074;2022-11-20T14:53:53;9.60;99.90
5560;DHT22;2803;47.916;8.074;2022-11-20T14:56:22;9.90;99.90
5560;DHT22;2803;47.916;8.074;2022-11-20T14:58:58;10.00;99.90
5560;DHT22;2803;47.916;8.074;2022-11-20T15:01:26;9.40;99.90
5560;DHT22;2803;47.916;8.074;2022-11-20T15:04:00;9.40;99.90
5560;DHT22;2803;47.916;8.074;2022-11-20T15:06:27;9.70;99.90
5560;DHT22;2803;47.916;8.074;2022-11-20T15:08:54;9.60;99.90
5560;DHT22;2803;47.916;8.074;2022-11-20T15:11:27;9.50;99.90
5560;DHT22;2803;47.916;8.074;2022-11-20T15:13:55;9.50;99.90
5560;DHT22;2803;47.916;8.074;2022-11-20T15:16:24;9.60;99.90
5560;DHT22;2803;47.916;8.074;2022-11-20T15:18:52;9.70;99.90
5560;DHT22;2803;47.916;8.074;2022-11-20T15:21:19;9.50;99.90
5560;DHT22;2803;47.916;8.074;2022-11-20T15:23:47;9.60;99.90
5560;DHT22;2803;47.916;8.074;2022-11-20T15:26:15;9.70;99.90
5560;DHT22;2803;47.916;8.074;2022-11-20T15:28:45;9.60;99.90
5560;DHT22;2803;47.916;8.074;2022-11-20T15:31:14;8.90;99.90
5560;DHT22;2803;47.916;8.074;2022-11-20T15:33:42;9.10;99.90
5560;DHT22;2803;47.916;8.074;2022-11-20T15:36:09;8.90;99.90
5560;DHT22;2803;47.916;8.074;2022-11-20T15:38:36;9.00;99.90
5560;DHT22;2803;47.916;8.074;2022-11-20T15:41:03;8.60;99.90
5560;DHT22;2803;47.916;8.074;2022-11-20T15:43:30;8.80;99.90
5560;DHT22;2803;47.916;8.074;2022-11-20T15:45:59;9.00;99.90
5560;DHT22;2803;47.916;8.074;2022-11-20T15:48:29;9.00;99.90
5560;DHT22;2803;47.916;8.074;2022-11-20T15:51:02;8.90;99.90
5560;DHT22;2803;47.916;8.074;2022-11-20T15:53:30;9.10;99.90
5560;DHT22;2803;47.916;8.074;2022-11-20T15:55:58;8.70;99.90
5560;DHT22;2803;47.916;8.074;2022-11-20T15:58:24;8.90;99.90
5560;DHT22;2803;47.916;8.074;2022-11-20T16:00:52;9.00;99.90
5560;DHT22;2803;47.916;8.074;2022-11-20T16:03:20;8.80;99.90
5560;DHT22;2803;47.916;8.074;2022-11-20T16:05:46;8.80;99.90
5560;DHT22;2803;47.916;8.074;2022-11-20T16:08:14;9.00;99.90
5560;DHT22;2803;47.916;8.074;2022-11-20T16:10:43;9.10;99.90
5560;DHT22;2803;47.916;8.074;2022-11-20T16:13:12;8.60;99.90
5560;DHT22;2803;47.916;8.074;2022-11-20T16:15:56;8.70;99.90
5560;DHT22;2803;47.916;8.074;2022-11-20T16:18:23;8.90;99.90
5560;DHT22;2803;47.916;8.074;2022-11-20T16:20:51;8.90;99.90
5560;DHT22;2803;47.916;8.074;2022-11-20T16:23:20;9.00;99.90
5560;DHT22;2803;47.916;8.074;2022-11-20T16:25:47;8.60;99.90
5560;DHT22;2803;47.916;8.074;2022-11-20T16:28:14;8.40;99.90
5560;DHT22;2803;47.916;8.074;2022-11-20T16:30:40;8.60;99.90
5560;DHT22;2803;47.916;8.074;2022-11-20T16:33:10;8.50;99.90
5560;DHT22;2803;47.916;8.074;2022-11-20T16:35:37;8.50;99.90